sensor_id;sensor_type;location;lat;lon;timestamp;pressure;altitude;pressure_sealevel;temperature;humidity
50349;BME280;36250;48.740;22.174;2024-03-22T00:02:14;100754.91;;;11.05;48.38
50349;BME280;36250;48.740;22.174;2024-03-22T00:04:39;100755.81;;;11.10;47.85
50349;BME280;36250;48.740;22.174;2024-03-22T00:07:05;100758.44;;;11.17;48.13
50349;BME280;36250;48.740;22.174;2024-03-22T00:09:30;100758.19;;;11.18;47.80
50349;BME280;36250;48.740;22.174;2024-03-22T00:11:55;100755.13;;;11.15;48.18
50349;BME280;36250;48.740;22.174;2024-03-22T00:14:21;100756.44;;;11.01;48.66
50349;BME280;36250;48.740;22.174;2024-03-22T00:16:46;100755.00;;;11.10;47.92
50349;BME280;36250;48.740;22.174;2024-03-22T00:19:12;100744.09;;;11.21;48.38
50349;BME280;36250;48.740;22.174;2024-03-22T00:21:37;100745.81;;;11.28;48.63
50349;BME280;36250;48.740;22.174;2024-03-22T00:24:02;100745.09;;;11.32;48.21
50349;BME280;36250;48.740;22.174;2024-03-22T00:26:28;100742.72;;;11.36;48.19
50349;BME280;36250;48.740;22.174;2024-03-22T00:28:54;100745.56;;;11.41;47.88
50349;BME280;36250;48.740;22.174;2024-03-22T00:31:19;100742.25;;;11.39;48.12
50349;BME280;36250;48.740;22.174;2024-03-22T00:33:44;100750.53;;;11.44;48.08
50349;BME280;36250;48.740;22.174;2024-03-22T00:36:10;100748.88;;;11.43;48.34
50349;BME280;36250;48.740;22.174;2024-03-22T00:38:36;100753.59;;;11.47;48.02
50349;BME280;36250;48.740;22.174;2024-03-22T00:41:01;100743.88;;;11.51;47.74
50349;BME280;36250;48.740;22.174;2024-03-22T00:43:26;100743.13;;;11.56;47.96
50349;BME280;36250;48.740;22.174;2024-03-22T00:45:52;100736.69;;;11.62;47.32
50349;BME280;36250;48.740;22.174;2024-03-22T00:48:17;100737.41;;;11.69;47.79
50349;BME280;36250;48.740;22.174;2024-03-22T00:50:43;100732.44;;;11.66;47.54
50349;BME280;36250;48.740;22.174;2024-03-22T00:53:08;100734.19;;;11.72;47.54
50349;BME280;36250;48.740;22.174;2024-03-22T00:55:35;100733.59;;;11.70;47.60
50349;BME280;36250;48.740;22.174;2024-03-22T00:58:00;100733.47;;;11.65;48.50
50349;BME280;36250;48.740;22.174;2024-03-22T01:00:26;100736.78;;;11.67;48.37
50349;BME280;36250;48.740;22.174;2024-03-22T01:02:51;100728.72;;;11.72;48.53
50349;BME280;36250;48.740;22.174;2024-03-22T01:05:17;100733.72;;;11.75;48.04
50349;BME280;36250;48.740;22.174;2024-03-22T01:07:43;100730.25;;;11.79;47.83
50349;BME280;36250;48.740;22.174;2024-03-22T01:10:08;100727.88;;;11.83;48.13
50349;BME280;36250;48.740;22.174;2024-03-22T01:12:34;100733.41;;;11.88;47.75
50349;BME280;36250;48.740;22.174;2024-03-22T01:15:00;100733.31;;;11.83;47.86
50349;BME280;36250;48.740;22.174;2024-03-22T01:17:25;100730.00;;;11.81;48.30
50349;BME280;36250;48.740;22.174;2024-03-22T01:19:51;100734.13;;;11.83;47.92
50349;BME280;36250;48.740;22.174;2024-03-22T01:22:17;100731.75;;;11.87;47.82
50349;BME280;36250;48.740;22.174;2024-03-22T01:24:43;100742.16;;;11.90;47.96
50349;BME280;36250;48.740;22.174;2024-03-22T01:27:08;100734.91;;;11.96;47.70
50349;BME280;36250;48.740;22.174;2024-03-22T01:29:33;100737.63;;;11.96;48.45
50349;BME280;36250;48.740;22.174;2024-03-22T01:31:59;100734.56;;;11.92;48.73
50349;BME280;36250;48.740;22.174;2024-03-22T01:34:24;100742.16;;;11.90;48.61
50349;BME280;36250;48.740;22.174;2024-03-22T01:36:51;100741.81;;;11.86;49.10
50349;BME280;36250;48.740;22.174;2024-03-22T01:39:16;100742.91;;;11.85;48.56
50349;BME280;36250;48.740;22.174;2024-03-22T01:41:43;100742.66;;;11.87;48.70
50349;BME280;36250;48.740;22.174;2024-03-22T01:44:08;100744.81;;;11.85;49.30
50349;BME280;36250;48.740;22.174;2024-03-22T01:46:33;100742.94;;;11.74;50.21
50349;BME280;36250;48.740;22.174;2024-03-22T01:48:59;100745.47;;;11.64;50.58
50349;BME280;36250;48.740;22.174;2024-03-22T01:51:24;100744.44;;;11.53;50.97
50349;BME280;36250;48.740;22.174;2024-03-22T01:53:50;100765.41;;;11.53;51.50
50349;BME280;36250;48.740;22.174;2024-03-22T01:56:17;100756.66;;;11.51;52.15
50349;BME280;36250;48.740;22.174;2024-03-22T01:58:44;100755.25;;;11.48;51.74
50349;BME280;36250;48.740;22.174;2024-03-22T02:01:09;100758.94;;;11.42;51.98
50349;BME280;36250;48.740;22.174;2024-03-22T02:03:34;100758.13;;;11.42;52.04
50349;BME280;36250;48.740;22.174;2024-03-22T02:06:00;100760.84;;;11.42;51.68
50349;BME280;36250;48.740;22.174;2024-03-22T02:08:25;100753.63;;;11.36;51.59
50349;BME280;36250;48.740;22.174;2024-03-22T02:10:51;100762.88;;;11.35;51.85
50349;BME280;36250;48.740;22.174;2024-03-22T02:13:17;100761.22;;;11.34;51.85
50349;BME280;36250;48.740;22.174;2024-03-22T02:15:43;100769.16;;;11.35;51.54
50349;BME280;36250;48.740;22.174;2024-03-22T02:18:08;100773.28;;;11.38;51.48
50349;BME280;36250;48.740;22.174;2024-03-22T02:20:35;100765.69;;;11.40;51.37
50349;BME280;36250;48.740;22.174;2024-03-22T02:23:00;100767.38;;;11.41;51.74
50349;BME280;36250;48.740;22.174;2024-03-22T02:25:25;100777.91;;;11.37;51.51
50349;BME280;36250;48.740;22.174;2024-03-22T02:27:52;100778.78;;;11.26;52.40
50349;BME280;36250;48.740;22.174;2024-03-22T02:30:18;100779.97;;;11.18;53.72
50349;BME280;36250;48.740;22.174;2024-03-22T02:32:43;100768.53;;;11.05;53.62
50349;BME280;36250;48.740;22.174;2024-03-22T02:35:09;100776.25;;;10.85;55.77
50349;BME280;36250;48.740;22.174;2024-03-22T02:37:34;100770.69;;;10.04;56.64
50349;BME280;36250;48.740;22.174;2024-03-22T02:39:59;100766.84;;;10.34;55.45
50349;BME280;36250;48.740;22.174;2024-03-22T02:42:25;100781.75;;;10.20;55.44
50349;BME280;36250;48.740;22.174;2024-03-22T02:44:50;100775.84;;;10.23;56.13
50349;BME280;36250;48.740;22.174;2024-03-22T02:47:15;100748.75;;;10.40;55.10
50349;BME280;36250;48.740;22.174;2024-03-22T02:49:41;100768.06;;;10.50;55.28
50349;BME280;36250;48.740;22.174;2024-03-22T02:52:06;100768.44;;;10.65;55.21
50349;BME280;36250;48.740;22.174;2024-03-22T02:54:32;100777.53;;;10.59;55.23
50349;BME280;36250;48.740;22.174;2024-03-22T02:56:57;100773.16;;;10.81;55.47
50349;BME280;36250;48.740;22.174;2024-03-22T02:59:26;100774.66;;;11.00;55.11
50349;BME280;36250;48.740;22.174;2024-03-22T03:01:51;100777.25;;;11.18;55.02
50349;BME280;36250;48.740;22.174;2024-03-22T03:04:17;100767.63;;;11.28;55.56
50349;BME280;36250;48.740;22.174;2024-03-22T03:06:42;100777.00;;;11.32;55.04
50349;BME280;36250;48.740;22.174;2024-03-22T03:09:07;100767.06;;;11.14;54.91
50349;BME280;36250;48.740;22.174;2024-03-22T03:11:33;100766.25;;;11.13;55.21
50349;BME280;36250;48.740;22.174;2024-03-22T03:13:58;100759.69;;;11.26;55.11
50349;BME280;36250;48.740;22.174;2024-03-22T03:16:24;100768.31;;;11.35;55.67
50349;BME280;36250;48.740;22.174;2024-03-22T03:18:49;100759.91;;;11.36;55.74
50349;BME280;36250;48.740;22.174;2024-03-22T03:21:14;100757.91;;;11.32;55.08
50349;BME280;36250;48.740;22.174;2024-03-22T03:23:40;100752.59;;;11.25;54.29
50349;BME280;36250;48.740;22.174;2024-03-22T03:26:05;100742.50;;;11.26;54.88
50349;BME280;36250;48.740;22.174;2024-03-22T03:28:30;100740.88;;;11.25;55.30
50349;BME280;36250;48.740;22.174;2024-03-22T03:30:56;100755.31;;;11.25;54.47
50349;BME280;36250;48.740;22.174;2024-03-22T03:33:21;100770.25;;;11.22;54.49
50349;BME280;36250;48.740;22.174;2024-03-22T03:35:46;100771.00;;;11.06;56.44
50349;BME280;36250;48.740;22.174;2024-03-22T03:38:12;100768.53;;;10.82;57.31
50349;BME280;36250;48.740;22.174;2024-03-22T03:40:38;100767.47;;;10.94;57.78
50349;BME280;36250;48.740;22.174;2024-03-22T03:43:03;100767.47;;;10.94;56.76
50349;BME280;36250;48.740;22.174;2024-03-22T03:45:29;100768.19;;;10.78;57.91
50349;BME280;36250;48.740;22.174;2024-03-22T03:47:54;100754.09;;;10.70;57.94
50349;BME280;36250;48.740;22.174;2024-03-22T03:50:19;100765.47;;;10.90;57.83
50349;BME280;36250;48.740;22.174;2024-03-22T03:52:44;100760.22;;;10.88;57.78
50349;BME280;36250;48.740;22.174;2024-03-22T03:55:10;100758.72;;;10.92;58.23
50349;BME280;36250;48.740;22.174;2024-03-22T03:57:35;100750.25;;;11.05;57.66
50349;BME280;36250;48.740;22.174;2024-03-22T04:00:02;100742.09;;;11.17;57.67
50349;BME280;36250;48.740;22.174;2024-03-22T04:02:27;100753.72;;;11.12;57.44
50349;BME280;36250;48.740;22.174;2024-03-22T04:04:52;100752.28;;;10.98;58.08
50349;BME280;36250;48.740;22.174;2024-03-22T04:07:19;100759.03;;;10.96;57.83
50349;BME280;36250;48.740;22.174;2024-03-22T04:09:45;100759.41;;;10.99;58.40
50349;BME280;36250;48.740;22.174;2024-03-22T04:12:10;100771.34;;;10.98;58.81
50349;BME280;36250;48.740;22.174;2024-03-22T04:14:35;100768.91;;;10.85;58.82
50349;BME280;36250;48.740;22.174;2024-03-22T04:17:01;100778.34;;;10.94;58.96
50349;BME280;36250;48.740;22.174;2024-03-22T04:19:26;100769.25;;;10.89;58.70
50349;BME280;36250;48.740;22.174;2024-03-22T04:21:51;100769.13;;;10.84;58.53
50349;BME280;36250;48.740;22.174;2024-03-22T04:24:17;100762.84;;;10.83;58.60
50349;BME280;36250;48.740;22.174;2024-03-22T04:26:42;100765.34;;;10.85;58.73
50349;BME280;36250;48.740;22.174;2024-03-22T04:29:08;100764.84;;;10.99;58.03
50349;BME280;36250;48.740;22.174;2024-03-22T04:31:33;100770.53;;;11.09;57.70
50349;BME280;36250;48.740;22.174;2024-03-22T04:33:58;100769.00;;;11.02;57.37
50349;BME280;36250;48.740;22.174;2024-03-22T04:36:24;100778.81;;;11.14;58.03
50349;BME280;36250;48.740;22.174;2024-03-22T04:38:49;100768.81;;;11.20;57.23
50349;BME280;36250;48.740;22.174;2024-03-22T04:41:14;100768.72;;;11.27;58.07
50349;BME280;36250;48.740;22.174;2024-03-22T04:43:40;100763.94;;;11.34;57.80
50349;BME280;36250;48.740;22.174;2024-03-22T04:46:05;100769.84;;;11.42;57.73
50349;BME280;36250;48.740;22.174;2024-03-22T04:48:30;100757.00;;;11.54;57.60
50349;BME280;36250;48.740;22.174;2024-03-22T04:50:56;100751.75;;;11.64;57.42
50349;BME280;36250;48.740;22.174;2024-03-22T04:53:21;100749.13;;;11.69;57.26
50349;BME280;36250;48.740;22.174;2024-03-22T04:55:47;100742.16;;;11.73;57.61
50349;BME280;36250;48.740;22.174;2024-03-22T04:58:17;100738.91;;;11.76;57.28
50349;BME280;36250;48.740;22.174;2024-03-22T05:00:44;100741.97;;;11.80;57.98
50349;BME280;36250;48.740;22.174;2024-03-22T05:03:10;100738.78;;;11.83;57.66
50349;BME280;36250;48.740;22.174;2024-03-22T05:05:37;100743.13;;;11.84;57.18
50349;BME280;36250;48.740;22.174;2024-03-22T05:08:03;100747.84;;;11.88;57.26
50349;BME280;36250;48.740;22.174;2024-03-22T05:10:29;100764.88;;;11.79;57.84
50349;BME280;36250;48.740;22.174;2024-03-22T05:12:56;100775.16;;;11.49;58.97
50349;BME280;36250;48.740;22.174;2024-03-22T05:15:21;100771.66;;;11.37;59.69
50349;BME280;36250;48.740;22.174;2024-03-22T05:17:46;100764.53;;;11.36;59.71
50349;BME280;36250;48.740;22.174;2024-03-22T05:20:12;100769.34;;;11.45;59.69
50349;BME280;36250;48.740;22.174;2024-03-22T05:22:37;100768.16;;;11.53;59.71
50349;BME280;36250;48.740;22.174;2024-03-22T05:25:03;100772.66;;;11.59;58.91
50349;BME280;36250;48.740;22.174;2024-03-22T05:27:30;100774.28;;;11.60;59.25
50349;BME280;36250;48.740;22.174;2024-03-22T05:29:56;100766.09;;;11.60;59.17
50349;BME280;36250;48.740;22.174;2024-03-22T05:32:21;100776.41;;;11.69;59.42
50349;BME280;36250;48.740;22.174;2024-03-22T05:34:46;100768.69;;;11.78;59.36
50349;BME280;36250;48.740;22.174;2024-03-22T05:37:12;100771.00;;;11.86;59.04
50349;BME280;36250;48.740;22.174;2024-03-22T05:39:37;100766.16;;;11.88;59.27
50349;BME280;36250;48.740;22.174;2024-03-22T05:42:03;100776.53;;;11.91;58.28
50349;BME280;36250;48.740;22.174;2024-03-22T05:44:28;100780.47;;;11.95;58.37
50349;BME280;36250;48.740;22.174;2024-03-22T05:46:53;100785.44;;;11.98;58.14
50349;BME280;36250;48.740;22.174;2024-03-22T05:49:19;100788.25;;;11.75;59.26
50349;BME280;36250;48.740;22.174;2024-03-22T05:51:45;100787.38;;;11.46;59.65
50349;BME280;36250;48.740;22.174;2024-03-22T05:54:10;100790.00;;;11.41;59.92
50349;BME280;36250;48.740;22.174;2024-03-22T05:56:35;100784.19;;;11.38;60.42
50349;BME280;36250;48.740;22.174;2024-03-22T05:59:01;100785.13;;;11.43;60.14
50349;BME280;36250;48.740;22.174;2024-03-22T06:01:27;100785.13;;;11.43;60.38
50349;BME280;36250;48.740;22.174;2024-03-22T06:03:52;100782.41;;;11.43;60.59
50349;BME280;36250;48.740;22.174;2024-03-22T06:06:17;100788.13;;;11.42;60.63
50349;BME280;36250;48.740;22.174;2024-03-22T06:08:43;100790.94;;;11.35;61.09
50349;BME280;36250;48.740;22.174;2024-03-22T06:11:10;100794.41;;;11.31;61.25
50349;BME280;36250;48.740;22.174;2024-03-22T06:13:35;100797.50;;;11.34;61.33
50349;BME280;36250;48.740;22.174;2024-03-22T06:16:01;100801.34;;;11.50;60.95
50349;BME280;36250;48.740;22.174;2024-03-22T06:18:27;100794.88;;;11.67;60.21
50349;BME280;36250;48.740;22.174;2024-03-22T06:20:52;100793.53;;;11.53;59.69
50349;BME280;36250;48.740;22.174;2024-03-22T06:23:20;100799.50;;;11.67;59.45
50349;BME280;36250;48.740;22.174;2024-03-22T06:25:55;100789.19;;;11.80;58.94
50349;BME280;36250;48.740;22.174;2024-03-22T06:28:21;100785.84;;;12.07;58.00
50349;BME280;36250;48.740;22.174;2024-03-22T06:30:47;100786.13;;;12.22;57.85
50349;BME280;36250;48.740;22.174;2024-03-22T06:33:12;100782.91;;;12.41;57.64
50349;BME280;36250;48.740;22.174;2024-03-22T06:35:38;100788.19;;;12.65;56.90
50349;BME280;36250;48.740;22.174;2024-03-22T06:38:03;100794.53;;;12.87;56.09
50349;BME280;36250;48.740;22.174;2024-03-22T06:40:29;100793.63;;;12.98;56.16
50349;BME280;36250;48.740;22.174;2024-03-22T06:42:55;100802.31;;;12.95;55.39
50349;BME280;36250;48.740;22.174;2024-03-22T06:45:20;100804.28;;;12.99;55.37
50349;BME280;36250;48.740;22.174;2024-03-22T06:47:46;100804.97;;;13.06;54.84
50349;BME280;36250;48.740;22.174;2024-03-22T06:50:11;100807.94;;;13.05;54.96
50349;BME280;36250;48.740;22.174;2024-03-22T06:52:37;100817.28;;;13.09;54.89
50349;BME280;36250;48.740;22.174;2024-03-22T06:55:02;100820.19;;;13.02;53.20
50349;BME280;36250;48.740;22.174;2024-03-22T06:57:28;100823.53;;;12.71;54.17
50349;BME280;36250;48.740;22.174;2024-03-22T06:59:54;100840.91;;;12.48;55.22
50349;BME280;36250;48.740;22.174;2024-03-22T07:02:19;100844.47;;;12.49;55.81
50349;BME280;36250;48.740;22.174;2024-03-22T07:04:45;100849.50;;;12.57;56.04
50349;BME280;36250;48.740;22.174;2024-03-22T07:07:11;100837.25;;;12.60;55.92
50349;BME280;36250;48.740;22.174;2024-03-22T07:09:36;100833.47;;;12.61;56.39
50349;BME280;36250;48.740;22.174;2024-03-22T07:12:01;100836.44;;;12.76;55.46
50349;BME280;36250;48.740;22.174;2024-03-22T07:14:27;100836.94;;;12.73;55.05
50349;BME280;36250;48.740;22.174;2024-03-22T07:16:52;100843.72;;;12.70;54.88
50349;BME280;36250;48.740;22.174;2024-03-22T07:19:26;100851.16;;;12.75;55.42
50349;BME280;36250;48.740;22.174;2024-03-22T07:21:53;100843.88;;;12.80;54.89
50349;BME280;36250;48.740;22.174;2024-03-22T07:24:19;100842.88;;;12.86;54.05
50349;BME280;36250;48.740;22.174;2024-03-22T07:26:44;100837.34;;;12.98;54.11
50349;BME280;36250;48.740;22.174;2024-03-22T07:29:09;100842.25;;;13.12;54.35
50349;BME280;36250;48.740;22.174;2024-03-22T07:31:35;100850.19;;;13.14;54.16
50349;BME280;36250;48.740;22.174;2024-03-22T07:34:00;100852.41;;;13.00;53.78
50349;BME280;36250;48.740;22.174;2024-03-22T07:36:25;100848.75;;;12.95;54.37
50349;BME280;36250;48.740;22.174;2024-03-22T07:38:52;100853.66;;;12.93;53.62
50349;BME280;36250;48.740;22.174;2024-03-22T07:41:17;100842.72;;;13.09;53.32
50349;BME280;36250;48.740;22.174;2024-03-22T07:43:42;100852.31;;;13.29;52.91
50349;BME280;36250;48.740;22.174;2024-03-22T07:46:09;100855.63;;;13.52;52.66
50349;BME280;36250;48.740;22.174;2024-03-22T07:48:34;100859.13;;;13.69;51.72
50349;BME280;36250;48.740;22.174;2024-03-22T07:51:00;100860.78;;;13.70;51.09
50349;BME280;36250;48.740;22.174;2024-03-22T07:53:26;100862.00;;;13.79;51.23
50349;BME280;36250;48.740;22.174;2024-03-22T07:55:51;100860.22;;;13.90;50.95
50349;BME280;36250;48.740;22.174;2024-03-22T07:58:17;100846.31;;;13.97;50.96
50349;BME280;36250;48.740;22.174;2024-03-22T08:00:42;100839.88;;;14.08;50.85
50349;BME280;36250;48.740;22.174;2024-03-22T08:03:08;100849.78;;;14.14;50.85
50349;BME280;36250;48.740;22.174;2024-03-22T08:05:38;100853.19;;;14.26;49.99
50349;BME280;36250;48.740;22.174;2024-03-22T08:08:04;100845.00;;;14.26;49.91
50349;BME280;36250;48.740;22.174;2024-03-22T08:10:30;100846.59;;;14.22;49.75
50349;BME280;36250;48.740;22.174;2024-03-22T08:12:55;100849.78;;;14.14;49.89
50349;BME280;36250;48.740;22.174;2024-03-22T08:15:21;100856.59;;;14.11;50.21
50349;BME280;36250;48.740;22.174;2024-03-22T08:17:46;100859.53;;;13.78;51.62
50349;BME280;36250;48.740;22.174;2024-03-22T08:20:11;100857.56;;;13.73;51.34
50349;BME280;36250;48.740;22.174;2024-03-22T08:22:37;100857.28;;;13.75;51.37
50349;BME280;36250;48.740;22.174;2024-03-22T08:25:02;100854.69;;;13.85;51.50
50349;BME280;36250;48.740;22.174;2024-03-22T08:27:29;100850.91;;;14.13;51.32
50349;BME280;36250;48.740;22.174;2024-03-22T08:29:54;100845.06;;;14.31;50.58
50349;BME280;36250;48.740;22.174;2024-03-22T08:32:19;100841.38;;;14.42;50.51
50349;BME280;36250;48.740;22.174;2024-03-22T08:34:45;100852.72;;;14.56;50.83
50349;BME280;36250;48.740;22.174;2024-03-22T08:37:11;100847.31;;;14.66;50.78
50349;BME280;36250;48.740;22.174;2024-03-22T08:39:36;100848.66;;;14.63;49.78
50349;BME280;36250;48.740;22.174;2024-03-22T08:42:02;100833.34;;;14.67;49.98
50349;BME280;36250;48.740;22.174;2024-03-22T08:44:30;100846.25;;;14.67;49.62
50349;BME280;36250;48.740;22.174;2024-03-22T08:46:55;100852.75;;;14.61;49.68
50349;BME280;36250;48.740;22.174;2024-03-22T08:49:21;100846.56;;;14.43;50.21
50349;BME280;36250;48.740;22.174;2024-03-22T08:51:46;100851.47;;;14.41;50.29
50349;BME280;36250;48.740;22.174;2024-03-22T08:54:13;100850.41;;;14.21;50.50
50349;BME280;36250;48.740;22.174;2024-03-22T08:56:38;100856.13;;;13.93;50.82
50349;BME280;36250;48.740;22.174;2024-03-22T08:59:04;100862.31;;;13.61;51.77
50349;BME280;36250;48.740;22.174;2024-03-22T09:01:29;100856.28;;;13.59;52.50
50349;BME280;36250;48.740;22.174;2024-03-22T09:03:54;100862.63;;;13.43;52.30
50349;BME280;36250;48.740;22.174;2024-03-22T09:06:20;100867.41;;;13.53;52.34
50349;BME280;36250;48.740;22.174;2024-03-22T09:08:45;100870.78;;;13.60;52.18
50349;BME280;36250;48.740;22.174;2024-03-22T09:11:11;100864.28;;;13.66;51.99
50349;BME280;36250;48.740;22.174;2024-03-22T09:13:36;100863.66;;;13.80;52.02
50349;BME280;36250;48.740;22.174;2024-03-22T09:16:02;100865.44;;;13.70;51.70
50349;BME280;36250;48.740;22.174;2024-03-22T09:18:27;100867.41;;;13.74;51.91
50349;BME280;36250;48.740;22.174;2024-03-22T09:20:53;100852.53;;;13.65;52.30
50349;BME280;36250;48.740;22.174;2024-03-22T09:23:19;100852.44;;;13.82;52.56
50349;BME280;36250;48.740;22.174;2024-03-22T09:25:48;100843.06;;;14.00;52.44
50349;BME280;36250;48.740;22.174;2024-03-22T09:28:13;100852.78;;;13.86;51.87
50349;BME280;36250;48.740;22.174;2024-03-22T09:30:39;100854.41;;;13.65;52.84
50349;BME280;36250;48.740;22.174;2024-03-22T09:33:06;100854.69;;;13.63;53.18
50349;BME280;36250;48.740;22.174;2024-03-22T09:35:35;100856.94;;;13.28;53.10
50349;BME280;36250;48.740;22.174;2024-03-22T09:38:01;100843.03;;;13.30;54.23
50349;BME280;36250;48.740;22.174;2024-03-22T09:40:27;100846.09;;;13.55;54.14
50349;BME280;36250;48.740;22.174;2024-03-22T09:42:53;100841.06;;;13.68;53.84
50349;BME280;36250;48.740;22.174;2024-03-22T09:45:18;100840.88;;;13.75;53.52
50349;BME280;36250;48.740;22.174;2024-03-22T09:47:47;100840.09;;;13.79;53.53
50349;BME280;36250;48.740;22.174;2024-03-22T09:50:13;100826.16;;;14.03;53.79
50349;BME280;36250;48.740;22.174;2024-03-22T09:52:41;100826.81;;;14.15;53.91
50349;BME280;36250;48.740;22.174;2024-03-22T09:55:07;100830.78;;;14.29;53.46
50349;BME280;36250;48.740;22.174;2024-03-22T09:57:35;100820.28;;;14.42;53.00
50349;BME280;36250;48.740;22.174;2024-03-22T10:00:02;100828.00;;;14.24;52.96
50349;BME280;36250;48.740;22.174;2024-03-22T10:02:28;100825.31;;;14.29;52.81
50349;BME280;36250;48.740;22.174;2024-03-22T10:04:56;100827.75;;;14.52;52.65
50349;BME280;36250;48.740;22.174;2024-03-22T10:07:22;100831.72;;;14.66;50.88
50349;BME280;36250;48.740;22.174;2024-03-22T10:09:47;100830.41;;;14.42;51.34
50349;BME280;36250;48.740;22.174;2024-03-22T10:12:12;100841.00;;;13.85;52.27
50349;BME280;36250;48.740;22.174;2024-03-22T10:14:38;100829.00;;;14.13;52.13
50349;BME280;36250;48.740;22.174;2024-03-22T10:17:05;100823.91;;;14.26;51.53
50349;BME280;36250;48.740;22.174;2024-03-22T10:19:30;100820.66;;;14.56;51.63
50349;BME280;36250;48.740;22.174;2024-03-22T10:22:05;100816.63;;;15.00;50.92
50349;BME280;36250;48.740;22.174;2024-03-22T10:24:33;100822.31;;;14.57;50.38
50349;BME280;36250;48.740;22.174;2024-03-22T10:26:59;100806.97;;;14.56;49.28
50349;BME280;36250;48.740;22.174;2024-03-22T10:29:24;100813.00;;;14.58;50.72
50349;BME280;36250;48.740;22.174;2024-03-22T10:31:51;100802.81;;;14.85;49.59
50349;BME280;36250;48.740;22.174;2024-03-22T10:34:17;100818.38;;;14.48;49.43
50349;BME280;36250;48.740;22.174;2024-03-22T10:36:44;100809.84;;;14.13;50.46
50349;BME280;36250;48.740;22.174;2024-03-22T10:39:13;100816.94;;;14.14;50.48
50349;BME280;36250;48.740;22.174;2024-03-22T10:41:40;100817.44;;;14.32;50.32
50349;BME280;36250;48.740;22.174;2024-03-22T10:44:05;100811.78;;;14.17;50.58
50349;BME280;36250;48.740;22.174;2024-03-22T10:46:34;100811.41;;;14.30;50.05
50349;BME280;36250;48.740;22.174;2024-03-22T10:49:02;100804.97;;;14.46;49.98
50349;BME280;36250;48.740;22.174;2024-03-22T10:51:29;100805.88;;;14.94;50.15
50349;BME280;36250;48.740;22.174;2024-03-22T10:53:56;100811.53;;;15.24;48.52
50349;BME280;36250;48.740;22.174;2024-03-22T10:56:24;100808.13;;;15.49;47.92
50349;BME280;36250;48.740;22.174;2024-03-22T10:58:50;100812.78;;;15.06;48.84
50349;BME280;36250;48.740;22.174;2024-03-22T11:01:24;100809.31;;;15.68;47.98
50349;BME280;36250;48.740;22.174;2024-03-22T11:03:50;100802.72;;;15.69;47.87
50349;BME280;36250;48.740;22.174;2024-03-22T11:06:21;100803.88;;;15.88;46.16
50349;BME280;36250;48.740;22.174;2024-03-22T11:08:51;100802.59;;;16.36;46.95
50349;BME280;36250;48.740;22.174;2024-03-22T11:11:19;100799.59;;;16.83;44.60
50349;BME280;36250;48.740;22.174;2024-03-22T11:13:47;100793.75;;;17.15;45.18
50349;BME280;36250;48.740;22.174;2024-03-22T11:16:14;100788.16;;;17.45;44.36
50349;BME280;36250;48.740;22.174;2024-03-22T11:18:40;100790.00;;;17.75;44.10
50349;BME280;36250;48.740;22.174;2024-03-22T11:21:06;100782.16;;;17.97;43.04
50349;BME280;36250;48.740;22.174;2024-03-22T11:23:34;100772.34;;;18.19;41.21
50349;BME280;36250;48.740;22.174;2024-03-22T11:26:01;100773.72;;;18.17;40.48
50349;BME280;36250;48.740;22.174;2024-03-22T11:28:26;100773.72;;;18.17;41.39
50349;BME280;36250;48.740;22.174;2024-03-22T11:30:52;100770.91;;;18.27;41.30
50349;BME280;36250;48.740;22.174;2024-03-22T11:33:17;100772.75;;;18.36;41.06
50349;BME280;36250;48.740;22.174;2024-03-22T11:35:43;100769.31;;;18.21;40.93
50349;BME280;36250;48.740;22.174;2024-03-22T11:38:09;100767.63;;;17.86;41.26
50349;BME280;36250;48.740;22.174;2024-03-22T11:40:34;100769.84;;;17.84;41.72
50349;BME280;36250;48.740;22.174;2024-03-22T11:43:00;100765.75;;;17.71;41.21
50349;BME280;36250;48.740;22.174;2024-03-22T11:45:27;100764.25;;;17.40;41.90
50349;BME280;36250;48.740;22.174;2024-03-22T11:47:53;100752.09;;;17.46;42.73
50349;BME280;36250;48.740;22.174;2024-03-22T11:50:19;100753.47;;;17.54;41.99
50349;BME280;36250;48.740;22.174;2024-03-22T11:52:45;100749.25;;;17.71;41.89
50349;BME280;36250;48.740;22.174;2024-03-22T11:55:14;100749.19;;;17.82;43.14
50349;BME280;36250;48.740;22.174;2024-03-22T11:57:40;100737.88;;;18.22;42.36
50349;BME280;36250;48.740;22.174;2024-03-22T12:00:07;100731.66;;;18.40;40.43
50349;BME280;36250;48.740;22.174;2024-03-22T12:02:35;100723.91;;;18.47;40.74
50349;BME280;36250;48.740;22.174;2024-03-22T12:05:01;100729.69;;;18.51;41.36
50349;BME280;36250;48.740;22.174;2024-03-22T12:07:28;100736.34;;;18.73;39.98
50349;BME280;36250;48.740;22.174;2024-03-22T12:09:54;100730.44;;;18.56;40.10
50349;BME280;36250;48.740;22.174;2024-03-22T12:12:21;100733.69;;;18.29;39.38
50349;BME280;36250;48.740;22.174;2024-03-22T12:14:46;100729.41;;;18.13;40.04
50349;BME280;36250;48.740;22.174;2024-03-22T12:17:12;100721.25;;;18.32;40.03
50349;BME280;36250;48.740;22.174;2024-03-22T12:19:37;100719.69;;;18.26;39.54
50349;BME280;36250;48.740;22.174;2024-03-22T12:22:02;100713.28;;;18.30;39.35
50349;BME280;36250;48.740;22.174;2024-03-22T12:24:28;100704.31;;;18.49;39.02
50349;BME280;36250;48.740;22.174;2024-03-22T12:26:53;100698.75;;;18.82;38.58
50349;BME280;36250;48.740;22.174;2024-03-22T12:29:19;100689.47;;;18.97;36.72
50349;BME280;36250;48.740;22.174;2024-03-22T12:31:46;100686.59;;;19.07;38.60
50349;BME280;36250;48.740;22.174;2024-03-22T12:34:11;100685.03;;;19.20;37.07